< < Back
Terminal Aerodrome Forecast


Current Version              Previous Versions:   1  2  3  4  5  6  7  8  9  

Terminal Aerodrome Forecast

260
FTUS42 KGSP 220500
TAFGSP
TAF
KGSP 220523Z 2206/2306 34012G22KT P6SM SKC
     FM221000 34007KT P6SM SKC
     FM230100 35005KT P6SM SKC=



Latest METAR

476
SAUS70 KWBC 222300 RRE
MTRGSP
METAR KGSP 222253Z AUTO 34006KT 10SM CLR 14/04 A3007 RMK AO2 SLP181
T01390039


USA.gov is the U.S. government's official web portal to all federal, state and local government web resources and services.